sensor_id;sensor_type;location;lat;lon;timestamp;pressure;altitude;pressure_sealevel;temperature;humidity
47430;BME280;33181;49.246;7.372;2023-03-15T00:02:04;98624.44;;;2.68;87.80
47430;BME280;33181;49.246;7.372;2023-03-15T00:04:31;98627.56;;;2.75;87.49
47430;BME280;33181;49.246;7.372;2023-03-15T00:06:57;98624.75;;;2.62;87.85
47430;BME280;33181;49.246;7.372;2023-03-15T00:09:24;98637.94;;;2.58;88.23
47430;BME280;33181;49.246;7.372;2023-03-15T00:11:51;98642.44;;;2.54;88.63
47430;BME280;33181;49.246;7.372;2023-03-15T00:14:19;98653.44;;;2.59;88.71
47430;BME280;33181;49.246;7.372;2023-03-15T00:16:45;98652.50;;;2.60;88.23
47430;BME280;33181;49.246;7.372;2023-03-15T00:19:12;98655.94;;;2.61;88.57
47430;BME280;33181;49.246;7.372;2023-03-15T00:21:38;98654.63;;;2.52;89.06
47430;BME280;33181;49.246;7.372;2023-03-15T00:24:05;98651.44;;;2.47;88.73
47430;BME280;33181;49.246;7.372;2023-03-15T00:26:31;98657.84;;;2.40;89.20
47430;BME280;33181;49.246;7.372;2023-03-15T00:28:58;98650.22;;;2.37;89.61
47430;BME280;33181;49.246;7.372;2023-03-15T00:31:24;98646.75;;;2.36;89.47
47430;BME280;33181;49.246;7.372;2023-03-15T00:33:51;98648.16;;;2.43;89.10
47430;BME280;33181;49.246;7.372;2023-03-15T00:36:21;98650.91;;;2.58;88.75
47430;BME280;33181;49.246;7.372;2023-03-15T00:38:48;98646.91;;;2.68;88.26
47430;BME280;33181;49.246;7.372;2023-03-15T00:41:17;98646.25;;;2.64;87.81
47430;BME280;33181;49.246;7.372;2023-03-15T00:43:45;98644.81;;;2.59;87.58
47430;BME280;33181;49.246;7.372;2023-03-15T00:46:12;98640.81;;;2.51;88.16
47430;BME280;33181;49.246;7.372;2023-03-15T00:48:38;98638.78;;;2.41;87.98
47430;BME280;33181;49.246;7.372;2023-03-15T00:51:09;98644.47;;;2.13;89.62
47430;BME280;33181;49.246;7.372;2023-03-15T00:53:38;98641.94;;;2.11;89.83
47430;BME280;33181;49.246;7.372;2023-03-15T00:56:06;98637.63;;;2.12;89.88
47430;BME280;33181;49.246;7.372;2023-03-15T00:58:32;98636.69;;;2.13;90.01
47430;BME280;33181;49.246;7.372;2023-03-15T01:01:03;98651.59;;;2.07;90.22
47430;BME280;33181;49.246;7.372;2023-03-15T01:03:29;98652.44;;;2.08;90.17
47430;BME280;33181;49.246;7.372;2023-03-15T01:05:55;98654.22;;;1.89;91.03
47430;BME280;33181;49.246;7.372;2023-03-15T01:08:20;98655.22;;;1.86;91.20
47430;BME280;33181;49.246;7.372;2023-03-15T01:10:49;98656.66;;;1.92;91.31
47430;BME280;33181;49.246;7.372;2023-03-15T01:13:14;98658.09;;;1.99;90.92
47430;BME280;33181;49.246;7.372;2023-03-15T01:15:45;98671.00;;;2.18;90.08
47430;BME280;33181;49.246;7.372;2023-03-15T01:18:11;98666.13;;;2.29;89.14
47430;BME280;33181;49.246;7.372;2023-03-15T01:20:40;98676.56;;;2.27;88.33
47430;BME280;33181;49.246;7.372;2023-03-15T01:23:06;98681.22;;;2.21;88.61
47430;BME280;33181;49.246;7.372;2023-03-15T01:25:33;98684.91;;;2.34;88.72
47430;BME280;33181;49.246;7.372;2023-03-15T01:27:59;98680.25;;;2.41;87.71
47430;BME280;33181;49.246;7.372;2023-03-15T01:30:25;98682.59;;;2.45;87.08
47430;BME280;33181;49.246;7.372;2023-03-15T01:32:51;98693.41;;;2.19;87.72
47430;BME280;33181;49.246;7.372;2023-03-15T01:35:16;98688.75;;;2.25;87.90
47430;BME280;33181;49.246;7.372;2023-03-15T01:37:42;98696.25;;;2.31;87.53
47430;BME280;33181;49.246;7.372;2023-03-15T01:40:14;98695.72;;;2.42;87.28
47430;BME280;33181;49.246;7.372;2023-03-15T01:45:53;98712.22;;;2.59;85.97
47430;BME280;33181;49.246;7.372;2023-03-15T01:48:28;98714.66;;;2.62;85.66
47430;BME280;33181;49.246;7.372;2023-03-15T01:50:56;98708.63;;;2.61;85.59
47430;BME280;33181;49.246;7.372;2023-03-15T01:53:24;98713.66;;;2.64;85.21
47430;BME280;33181;49.246;7.372;2023-03-15T01:55:52;98717.66;;;2.71;85.33
47430;BME280;33181;49.246;7.372;2023-03-15T01:58:20;98721.97;;;2.71;84.80
47430;BME280;33181;49.246;7.372;2023-03-15T02:00:48;98721.91;;;2.72;84.34
47430;BME280;33181;49.246;7.372;2023-03-15T02:03:44;98724.94;;;2.63;83.96
47430;BME280;33181;49.246;7.372;2023-03-15T02:06:16;98731.22;;;2.59;84.07
47430;BME280;33181;49.246;7.372;2023-03-15T02:08:50;98739.72;;;2.61;84.50
47430;BME280;33181;49.246;7.372;2023-03-15T02:11:19;98735.22;;;2.65;84.26
47430;BME280;33181;49.246;7.372;2023-03-15T02:13:48;98739.44;;;2.67;83.74
47430;BME280;33181;49.246;7.372;2023-03-15T02:16:15;98737.63;;;2.69;83.72
47430;BME280;33181;49.246;7.372;2023-03-15T02:18:41;98732.81;;;2.62;83.30
47430;BME280;33181;49.246;7.372;2023-03-15T02:24:24;98737.78;;;1.92;86.46
47430;BME280;33181;49.246;7.372;2023-03-15T02:26:56;98732.75;;;1.89;87.75
47430;BME280;33181;49.246;7.372;2023-03-15T02:29:25;98730.53;;;2.00;87.76
47430;BME280;33181;49.246;7.372;2023-03-15T02:31:52;98733.53;;;2.10;87.08
47430;BME280;33181;49.246;7.372;2023-03-15T02:34:18;98737.59;;;2.16;86.97
47430;BME280;33181;49.246;7.372;2023-03-15T02:36:43;98731.13;;;2.24;86.59
47430;BME280;33181;49.246;7.372;2023-03-15T02:39:18;98733.44;;;2.30;86.08
47430;BME280;33181;49.246;7.372;2023-03-15T02:41:57;98735.16;;;2.30;85.37
47430;BME280;33181;49.246;7.372;2023-03-15T02:44:36;98732.66;;;2.28;84.94
47430;BME280;33181;49.246;7.372;2023-03-15T02:47:18;98735.03;;;2.33;84.78
47430;BME280;33181;49.246;7.372;2023-03-15T02:49:49;98740.34;;;2.30;84.25
47430;BME280;33181;49.246;7.372;2023-03-15T02:52:15;98743.66;;;2.34;84.33
47430;BME280;33181;49.246;7.372;2023-03-15T02:54:41;98735.75;;;2.37;83.88
47430;BME280;33181;49.246;7.372;2023-03-15T02:57:16;98744.56;;;2.32;83.63
47430;BME280;33181;49.246;7.372;2023-03-15T02:59:43;98742.88;;;2.31;83.90
47430;BME280;33181;49.246;7.372;2023-03-15T03:02:10;98742.06;;;2.31;83.78
47430;BME280;33181;49.246;7.372;2023-03-15T03:04:37;98743.03;;;2.28;83.86
47430;BME280;33181;49.246;7.372;2023-03-15T03:07:03;98749.41;;;2.21;84.21
47430;BME280;33181;49.246;7.372;2023-03-15T03:09:29;98744.81;;;1.90;86.00
47430;BME280;33181;49.246;7.372;2023-03-15T03:11:55;98752.16;;;1.99;86.28
47430;BME280;33181;49.246;7.372;2023-03-15T03:14:21;98752.22;;;1.98;86.05
47430;BME280;33181;49.246;7.372;2023-03-15T03:16:50;98756.28;;;2.03;85.45
47430;BME280;33181;49.246;7.372;2023-03-15T03:19:16;98762.00;;;2.10;85.55
47430;BME280;33181;49.246;7.372;2023-03-15T03:21:42;98765.25;;;2.15;85.21
47430;BME280;33181;49.246;7.372;2023-03-15T03:24:09;98772.75;;;2.21;85.16
47430;BME280;33181;49.246;7.372;2023-03-15T03:26:35;98776.72;;;2.28;85.01
47430;BME280;33181;49.246;7.372;2023-03-15T03:29:03;98775.09;;;2.07;84.88
47430;BME280;33181;49.246;7.372;2023-03-15T03:31:32;98785.00;;;1.99;86.47
47430;BME280;33181;49.246;7.372;2023-03-15T03:34:00;98775.81;;;1.92;86.52
47430;BME280;33181;49.246;7.372;2023-03-15T03:36:26;98775.38;;;1.82;87.23
47430;BME280;33181;49.246;7.372;2023-03-15T03:38:52;98778.94;;;1.79;87.75
47430;BME280;33181;49.246;7.372;2023-03-15T03:41:21;98775.72;;;1.74;88.13
47430;BME280;33181;49.246;7.372;2023-03-15T03:43:47;98790.47;;;1.72;88.19
47430;BME280;33181;49.246;7.372;2023-03-15T03:46:13;98785.84;;;1.60;88.50
47430;BME280;33181;49.246;7.372;2023-03-15T03:48:39;98778.41;;;1.52;89.46
47430;BME280;33181;49.246;7.372;2023-03-15T03:51:05;98793.25;;;1.49;89.81
47430;BME280;33181;49.246;7.372;2023-03-15T03:53:31;98800.09;;;1.50;90.16
47430;BME280;33181;49.246;7.372;2023-03-15T03:55:56;98795.81;;;1.28;91.48
47430;BME280;33181;49.246;7.372;2023-03-15T03:58:22;98799.19;;;1.30;91.95
47430;BME280;33181;49.246;7.372;2023-03-15T04:00:50;98799.91;;;1.34;91.88
47430;BME280;33181;49.246;7.372;2023-03-15T04:03:18;98804.38;;;1.30;93.33
47430;BME280;33181;49.246;7.372;2023-03-15T04:05:45;98814.63;;;1.32;92.58
47430;BME280;33181;49.246;7.372;2023-03-15T04:08:11;98809.94;;;1.21;93.56
47430;BME280;33181;49.246;7.372;2023-03-15T04:10:36;98806.75;;;1.35;93.76
47430;BME280;33181;49.246;7.372;2023-03-15T04:13:02;98804.75;;;1.42;93.64
47430;BME280;33181;49.246;7.372;2023-03-15T04:15:28;98804.69;;;1.43;92.55
47430;BME280;33181;49.246;7.372;2023-03-15T04:17:54;98808.56;;;1.53;92.55
47430;BME280;33181;49.246;7.372;2023-03-15T04:20:26;98802.16;;;1.62;92.21
47430;BME280;33181;49.246;7.372;2023-03-15T04:22:52;98805.44;;;1.66;91.49
47430;BME280;33181;49.246;7.372;2023-03-15T04:25:19;98798.91;;;1.77;91.07
47430;BME280;33181;49.246;7.372;2023-03-15T04:27:45;98801.91;;;1.87;90.17
47430;BME280;33181;49.246;7.372;2023-03-15T04:30:26;98799.47;;;1.84;89.79
47430;BME280;33181;49.246;7.372;2023-03-15T04:32:56;98800.50;;;1.80;89.35
47430;BME280;33181;49.246;7.372;2023-03-15T04:35:31;98805.75;;;1.78;89.52
47430;BME280;33181;49.246;7.372;2023-03-15T04:37:59;98806.78;;;1.74;89.27
47430;BME280;33181;49.246;7.372;2023-03-15T04:40:27;98806.00;;;1.72;88.87
47430;BME280;33181;49.246;7.372;2023-03-15T04:42:54;98818.53;;;1.62;89.07
47430;BME280;33181;49.246;7.372;2023-03-15T04:45:26;98816.22;;;1.75;89.41
47430;BME280;33181;49.246;7.372;2023-03-15T04:47:54;98820.09;;;1.85;88.69
47430;BME280;33181;49.246;7.372;2023-03-15T04:50:21;98819.22;;;1.66;88.89
47430;BME280;33181;49.246;7.372;2023-03-15T04:52:48;98825.75;;;1.75;88.48
47430;BME280;33181;49.246;7.372;2023-03-15T04:55:14;98835.84;;;1.81;88.01
47430;BME280;33181;49.246;7.372;2023-03-15T04:57:40;98831.63;;;1.78;87.65
47430;BME280;33181;49.246;7.372;2023-03-15T05:00:08;98829.88;;;1.79;87.75
47430;BME280;33181;49.246;7.372;2023-03-15T05:02:38;98830.72;;;1.79;87.11
47430;BME280;33181;49.246;7.372;2023-03-15T05:05:05;98831.78;;;1.75;86.91
47430;BME280;33181;49.246;7.372;2023-03-15T05:07:35;98844.53;;;1.80;87.46
47430;BME280;33181;49.246;7.372;2023-03-15T05:10:02;98832.91;;;1.89;87.38
47430;BME280;33181;49.246;7.372;2023-03-15T05:12:28;98834.34;;;1.96;87.13
47430;BME280;33181;49.246;7.372;2023-03-15T05:14:54;98834.06;;;2.02;86.77
47430;BME280;33181;49.246;7.372;2023-03-15T05:17:20;98832.94;;;2.07;86.41
47430;BME280;33181;49.246;7.372;2023-03-15T05:19:48;98844.13;;;2.08;86.29
47430;BME280;33181;49.246;7.372;2023-03-15T05:22:14;98835.34;;;2.12;86.27
47430;BME280;33181;49.246;7.372;2023-03-15T05:24:42;98839.19;;;2.22;86.54
47430;BME280;33181;49.246;7.372;2023-03-15T05:27:08;98848.34;;;2.29;86.19
47430;BME280;33181;49.246;7.372;2023-03-15T05:29:34;98849.66;;;2.40;86.19
47430;BME280;33181;49.246;7.372;2023-03-15T05:32:00;98850.06;;;2.49;86.28
47430;BME280;33181;49.246;7.372;2023-03-15T05:34:29;98851.03;;;2.28;85.41
47430;BME280;33181;49.246;7.372;2023-03-15T05:36:58;98857.19;;;2.25;85.35
47430;BME280;33181;49.246;7.372;2023-03-15T05:39:24;98858.00;;;2.07;85.62
47430;BME280;33181;49.246;7.372;2023-03-15T05:41:50;98850.84;;;1.93;86.47
47430;BME280;33181;49.246;7.372;2023-03-15T05:44:19;98845.41;;;1.99;87.09
47430;BME280;33181;49.246;7.372;2023-03-15T05:46:45;98844.97;;;1.90;86.94
47430;BME280;33181;49.246;7.372;2023-03-15T05:49:10;98854.06;;;1.98;87.30
47430;BME280;33181;49.246;7.372;2023-03-15T05:51:36;98862.09;;;2.13;87.10
47430;BME280;33181;49.246;7.372;2023-03-15T05:54:02;98863.22;;;2.26;86.75
47430;BME280;33181;49.246;7.372;2023-03-15T05:56:28;98861.88;;;2.36;86.67
47430;BME280;33181;49.246;7.372;2023-03-15T05:58:54;98868.34;;;2.46;86.48
47430;BME280;33181;49.246;7.372;2023-03-15T06:01:19;98873.53;;;2.46;85.81
47430;BME280;33181;49.246;7.372;2023-03-15T06:03:45;98870.25;;;2.43;86.21
47430;BME280;33181;49.246;7.372;2023-03-15T06:06:11;98879.81;;;2.41;86.03
47430;BME280;33181;49.246;7.372;2023-03-15T06:08:37;98875.44;;;2.43;86.43
47430;BME280;33181;49.246;7.372;2023-03-15T06:11:03;98885.63;;;2.46;86.47
47430;BME280;33181;49.246;7.372;2023-03-15T06:13:28;98880.66;;;2.41;86.44
47430;BME280;33181;49.246;7.372;2023-03-15T06:15:54;98886.63;;;2.04;87.73
47430;BME280;33181;49.246;7.372;2023-03-15T06:18:20;98882.09;;;2.09;87.71
47430;BME280;33181;49.246;7.372;2023-03-15T06:20:46;98889.66;;;2.14;87.96
47430;BME280;33181;49.246;7.372;2023-03-15T06:23:11;98887.63;;;2.20;87.76
47430;BME280;33181;49.246;7.372;2023-03-15T06:25:37;98885.97;;;2.19;87.94
47430;BME280;33181;49.246;7.372;2023-03-15T06:28:03;98882.69;;;2.16;88.08
47430;BME280;33181;49.246;7.372;2023-03-15T06:30:29;98882.44;;;2.20;88.25
47430;BME280;33181;49.246;7.372;2023-03-15T06:32:55;98881.28;;;2.27;88.22
47430;BME280;33181;49.246;7.372;2023-03-15T06:35:21;98886.31;;;2.12;87.99
47430;BME280;33181;49.246;7.372;2023-03-15T06:37:47;98897.72;;;2.26;87.97
47430;BME280;33181;49.246;7.372;2023-03-15T06:40:13;98894.88;;;2.32;87.51
47430;BME280;33181;49.246;7.372;2023-03-15T06:42:40;98891.78;;;2.24;87.91
47430;BME280;33181;49.246;7.372;2023-03-15T06:45:07;98889.69;;;2.32;87.78
47430;BME280;33181;49.246;7.372;2023-03-15T06:47:34;98896.34;;;2.38;87.42
47430;BME280;33181;49.246;7.372;2023-03-15T06:50:01;98909.59;;;2.51;87.59
47430;BME280;33181;49.246;7.372;2023-03-15T06:52:26;98908.25;;;2.61;87.31
47430;BME280;33181;49.246;7.372;2023-03-15T06:54:52;98906.81;;;2.74;86.93
47430;BME280;33181;49.246;7.372;2023-03-15T06:57:18;98903.31;;;2.75;86.79
47430;BME280;33181;49.246;7.372;2023-03-15T06:59:44;98912.56;;;2.81;86.33
47430;BME280;33181;49.246;7.372;2023-03-15T07:02:15;98909.88;;;2.64;86.02
47430;BME280;33181;49.246;7.372;2023-03-15T07:04:42;98913.25;;;2.47;87.43
47430;BME280;33181;49.246;7.372;2023-03-15T07:07:13;98904.81;;;2.42;87.32
47430;BME280;33181;49.246;7.372;2023-03-15T07:09:39;98908.69;;;2.52;87.61
47430;BME280;33181;49.246;7.372;2023-03-15T07:12:06;98904.81;;;2.42;87.83
47430;BME280;33181;49.246;7.372;2023-03-15T07:14:33;98906.59;;;2.60;87.77
47430;BME280;33181;49.246;7.372;2023-03-15T07:16:59;98898.81;;;2.79;87.58
47430;BME280;33181;49.246;7.372;2023-03-15T07:19:25;98911.00;;;2.77;87.16
47430;BME280;33181;49.246;7.372;2023-03-15T07:21:51;98913.16;;;2.86;87.29
47430;BME280;33181;49.246;7.372;2023-03-15T07:24:17;98914.50;;;2.95;86.60
47430;BME280;33181;49.246;7.372;2023-03-15T07:26:43;98912.31;;;3.05;86.06
47430;BME280;33181;49.246;7.372;2023-03-15T07:29:09;98916.38;;;3.10;85.77
47430;BME280;33181;49.246;7.372;2023-03-15T07:31:35;98910.63;;;3.04;84.93
47430;BME280;33181;49.246;7.372;2023-03-15T07:34:01;98918.69;;;2.97;85.43
47430;BME280;33181;49.246;7.372;2023-03-15T07:36:26;98925.00;;;3.11;85.60
47430;BME280;33181;49.246;7.372;2023-03-15T07:38:52;98931.56;;;3.18;85.42
47430;BME280;33181;49.246;7.372;2023-03-15T07:41:18;98921.88;;;3.21;84.95
47430;BME280;33181;49.246;7.372;2023-03-15T07:43:43;98930.69;;;3.00;84.14
47430;BME280;33181;49.246;7.372;2023-03-15T07:46:10;98931.59;;;2.80;85.92
47430;BME280;33181;49.246;7.372;2023-03-15T07:48:35;98921.22;;;2.99;85.57
47430;BME280;33181;49.246;7.372;2023-03-15T07:51:01;98918.97;;;3.10;84.86
47430;BME280;33181;49.246;7.372;2023-03-15T07:53:27;98919.03;;;3.09;84.93
47430;BME280;33181;49.246;7.372;2023-03-15T07:55:53;98922.22;;;2.96;85.82
47430;BME280;33181;49.246;7.372;2023-03-15T07:58:18;98921.28;;;2.97;84.97
47430;BME280;33181;49.246;7.372;2023-03-15T08:00:44;98920.47;;;2.78;85.99
47430;BME280;33181;49.246;7.372;2023-03-15T08:03:10;98921.88;;;2.85;86.39
47430;BME280;33181;49.246;7.372;2023-03-15T08:05:36;98921.91;;;3.02;86.38
47430;BME280;33181;49.246;7.372;2023-03-15T08:08:02;98928.50;;;3.10;85.96
47430;BME280;33181;49.246;7.372;2023-03-15T08:10:28;98925.72;;;2.95;85.89
47430;BME280;33181;49.246;7.372;2023-03-15T08:12:53;98929.63;;;3.04;85.96
47430;BME280;33181;49.246;7.372;2023-03-15T08:15:19;98935.78;;;3.20;86.87
47430;BME280;33181;49.246;7.372;2023-03-15T08:17:47;98936.41;;;3.43;86.26
47430;BME280;33181;49.246;7.372;2023-03-15T08:20:15;98943.59;;;3.38;84.90
47430;BME280;33181;49.246;7.372;2023-03-15T08:22:44;98937.53;;;3.37;85.27
47430;BME280;33181;49.246;7.372;2023-03-15T08:25:12;98946.25;;;3.36;85.12
47430;BME280;33181;49.246;7.372;2023-03-15T08:27:38;98955.47;;;3.24;85.06
47430;BME280;33181;49.246;7.372;2023-03-15T08:30:05;98951.53;;;3.35;85.34
47430;BME280;33181;49.246;7.372;2023-03-15T08:32:31;98957.03;;;3.29;85.28
47430;BME280;33181;49.246;7.372;2023-03-15T08:34:57;98955.41;;;3.26;85.47
47430;BME280;33181;49.246;7.372;2023-03-15T08:37:23;98961.25;;;3.48;85.48
47430;BME280;33181;49.246;7.372;2023-03-15T08:39:51;98959.97;;;3.57;85.55
47430;BME280;33181;49.246;7.372;2023-03-15T08:42:26;98962.34;;;3.62;85.29
47430;BME280;33181;49.246;7.372;2023-03-15T08:44:52;98959.38;;;3.69;85.55
47430;BME280;33181;49.246;7.372;2023-03-15T08:47:18;98967.63;;;3.78;84.64
47430;BME280;33181;49.246;7.372;2023-03-15T08:49:44;98964.03;;;3.80;84.83
47430;BME280;33181;49.246;7.372;2023-03-15T08:52:10;98977.38;;;3.55;84.73
47430;BME280;33181;49.246;7.372;2023-03-15T08:54:36;98981.56;;;3.21;86.30
47430;BME280;33181;49.246;7.372;2023-03-15T08:57:02;98981.06;;;3.32;87.47
47430;BME280;33181;49.246;7.372;2023-03-15T08:59:28;98988.34;;;3.43;87.33
47430;BME280;33181;49.246;7.372;2023-03-15T09:01:54;98986.16;;;3.53;86.76
47430;BME280;33181;49.246;7.372;2023-03-15T09:04:20;98994.94;;;3.50;86.70
47430;BME280;33181;49.246;7.372;2023-03-15T09:06:46;98998.44;;;3.49;87.98
47430;BME280;33181;49.246;7.372;2023-03-15T09:09:12;98987.66;;;3.39;88.92
47430;BME280;33181;49.246;7.372;2023-03-15T09:11:42;98999.81;;;3.39;88.95
47430;BME280;33181;49.246;7.372;2023-03-15T09:14:08;99001.03;;;3.49;89.56
47430;BME280;33181;49.246;7.372;2023-03-15T09:16:33;99003.56;;;3.51;89.27
47430;BME280;33181;49.246;7.372;2023-03-15T09:18:59;98996.47;;;3.54;88.99
47430;BME280;33181;49.246;7.372;2023-03-15T09:21:25;99003.81;;;3.63;88.85
47430;BME280;33181;49.246;7.372;2023-03-15T09:23:52;99005.00;;;3.56;88.81
47430;BME280;33181;49.246;7.372;2023-03-15T09:26:17;99010.44;;;3.52;88.99
47430;BME280;33181;49.246;7.372;2023-03-15T09:28:43;99011.91;;;3.57;89.82
47430;BME280;33181;49.246;7.372;2023-03-15T09:31:09;99009.16;;;3.60;89.56
47430;BME280;33181;49.246;7.372;2023-03-15T09:33:36;99014.81;;;3.68;89.85
47430;BME280;33181;49.246;7.372;2023-03-15T09:36:02;99023.25;;;3.74;90.18
47430;BME280;33181;49.246;7.372;2023-03-15T09:38:28;99031.50;;;3.45;89.49
47430;BME280;33181;49.246;7.372;2023-03-15T09:40:58;99034.09;;;3.45;91.01
47430;BME280;33181;49.246;7.372;2023-03-15T09:43:57;99043.41;;;3.49;91.39
47430;BME280;33181;49.246;7.372;2023-03-15T09:46:31;99044.50;;;3.27;90.98
47430;BME280;33181;49.246;7.372;2023-03-15T09:49:20;99031.91;;;3.55;91.75
47430;BME280;33181;49.246;7.372;2023-03-15T09:55:27;99021.22;;;3.61;91.75
47430;BME280;33181;49.246;7.372;2023-03-15T09:58:11;99021.72;;;3.87;90.42
47430;BME280;33181;49.246;7.372;2023-03-15T10:00:47;99019.22;;;4.03;89.64
47430;BME280;33181;49.246;7.372;2023-03-15T10:06:23;99024.53;;;4.52;88.81
47430;BME280;33181;49.246;7.372;2023-03-15T10:08:58;99033.66;;;4.60;87.05
47430;BME280;33181;49.246;7.372;2023-03-15T10:12:01;99032.47;;;4.66;86.71
47430;BME280;33181;49.246;7.372;2023-03-15T10:21:18;99033.00;;;5.22;83.81
47430;BME280;33181;49.246;7.372;2023-03-15T10:23:52;99032.50;;;5.31;84.96
47430;BME280;33181;49.246;7.372;2023-03-15T10:26:30;99038.63;;;5.46;85.13
47430;BME280;33181;49.246;7.372;2023-03-15T10:28:57;99039.72;;;5.42;83.13
47430;BME280;33181;49.246;7.372;2023-03-15T10:31:28;99047.69;;;5.23;83.09
47430;BME280;33181;49.246;7.372;2023-03-15T10:33:56;99040.38;;;5.14;82.73
47430;BME280;33181;49.246;7.372;2023-03-15T10:36:24;99034.47;;;5.10;84.93
47430;BME280;33181;49.246;7.372;2023-03-15T10:38:50;99047.09;;;5.02;85.05
47430;BME280;33181;49.246;7.372;2023-03-15T10:44:12;99040.28;;;4.99;85.48
47430;BME280;33181;49.246;7.372;2023-03-15T10:46:39;99026.84;;;5.07;85.62
47430;BME280;33181;49.246;7.372;2023-03-15T10:49:15;99034.81;;;5.20;85.41
47430;BME280;33181;49.246;7.372;2023-03-15T10:51:46;99035.34;;;5.26;85.24
47430;BME280;33181;49.246;7.372;2023-03-15T10:54:22;99033.50;;;5.44;85.28
47430;BME280;33181;49.246;7.372;2023-03-15T10:57:10;99028.38;;;5.58;83.22
47430;BME280;33181;49.246;7.372;2023-03-15T11:00:26;99027.16;;;5.80;83.25
47430;BME280;33181;49.246;7.372;2023-03-15T11:03:04;99037.28;;;6.16;82.32
47430;BME280;33181;49.246;7.372;2023-03-15T11:05:48;99025.31;;;6.42;80.78
47430;BME280;33181;49.246;7.372;2023-03-15T11:08:18;99021.25;;;6.53;78.29
47430;BME280;33181;49.246;7.372;2023-03-15T11:10:54;99025.63;;;6.66;77.51
47430;BME280;33181;49.246;7.372;2023-03-15T11:13:29;99021.44;;;6.78;77.07
47430;BME280;33181;49.246;7.372;2023-03-15T11:16:06;99026.94;;;7.02;77.16
47430;BME280;33181;49.246;7.372;2023-03-15T11:21:15;99027.63;;;7.33;75.38
47430;BME280;33181;49.246;7.372;2023-03-15T11:23:46;99031.38;;;7.29;75.11
47430;BME280;33181;49.246;7.372;2023-03-15T11:26:24;99029.75;;;7.40;75.40
47430;BME280;33181;49.246;7.372;2023-03-15T11:29:13;99034.59;;;7.47;74.38
47430;BME280;33181;49.246;7.372;2023-03-15T11:31:42;99036.38;;;7.46;73.37
47430;BME280;33181;49.246;7.372;2023-03-15T11:36:44;99038.25;;;7.71;73.27
47430;BME280;33181;49.246;7.372;2023-03-15T11:39:14;99038.13;;;7.87;72.61
47430;BME280;33181;49.246;7.372;2023-03-15T11:41:51;99052.63;;;7.78;70.96
47430;BME280;33181;49.246;7.372;2023-03-15T11:44:42;99032.84;;;7.47;70.93
47430;BME280;33181;49.246;7.372;2023-03-15T11:47:53;99051.34;;;7.30;70.73
47430;BME280;33181;49.246;7.372;2023-03-15T11:50:20;99056.84;;;7.39;72.34
47430;BME280;33181;49.246;7.372;2023-03-15T11:52:50;99052.69;;;7.50;72.52
47430;BME280;33181;49.246;7.372;2023-03-15T11:55:22;99051.59;;;7.54;71.58
47430;BME280;33181;49.246;7.372;2023-03-15T11:57:52;99048.22;;;7.52;71.62
47430;BME280;33181;49.246;7.372;2023-03-15T12:00:52;99053.25;;;7.55;70.68
47430;BME280;33181;49.246;7.372;2023-03-15T12:03:32;99055.72;;;7.71;71.63
47430;BME280;33181;49.246;7.372;2023-03-15T12:08:51;99044.03;;;8.56;68.87
47430;BME280;33181;49.246;7.372;2023-03-15T12:16:42;99053.69;;;8.81;65.15
47430;BME280;33181;49.246;7.372;2023-03-15T12:19:16;99053.47;;;8.84;64.55
47430;BME280;33181;49.246;7.372;2023-03-15T12:21:50;99053.38;;;8.73;64.39
47430;BME280;33181;49.246;7.372;2023-03-15T12:24:29;99062.16;;;9.10;65.44
47430;BME280;33181;49.246;7.372;2023-03-15T12:27:03;99062.06;;;9.48;63.72
47430;BME280;33181;49.246;7.372;2023-03-15T12:29:32;99049.34;;;9.68;62.01
47430;BME280;33181;49.246;7.372;2023-03-15T12:32:07;99051.00;;;10.17;62.40
47430;BME280;33181;49.246;7.372;2023-03-15T12:34:57;99050.78;;;10.55;60.78
47430;BME280;33181;49.246;7.372;2023-03-15T12:56:24;99034.22;;;9.71;58.22
47430;BME280;33181;49.246;7.372;2023-03-15T12:58:59;99037.16;;;9.91;58.68
47430;BME280;33181;49.246;7.372;2023-03-15T13:01:29;99030.00;;;10.17;58.06
47430;BME280;33181;49.246;7.372;2023-03-15T13:03:57;99025.09;;;10.48;58.30
47430;BME280;33181;49.246;7.372;2023-03-15T13:06:57;99033.94;;;10.58;56.20
47430;BME280;33181;49.246;7.372;2023-03-15T13:18:17;99027.22;;;9.83;55.41
47430;BME280;33181;49.246;7.372;2023-03-15T13:21:04;99030.47;;;9.63;56.57
47430;BME280;33181;49.246;7.372;2023-03-15T13:23:34;99053.91;;;8.91;58.58
47430;BME280;33181;49.246;7.372;2023-03-15T13:31:33;99076.75;;;7.13;71.25
47430;BME280;33181;49.246;7.372;2023-03-15T13:34:34;99062.66;;;6.87;73.23
47430;BME280;33181;49.246;7.372;2023-03-15T13:37:00;99069.56;;;6.88;75.61
47430;BME280;33181;49.246;7.372;2023-03-15T13:39:33;99077.22;;;6.91;75.19
47430;BME280;33181;49.246;7.372;2023-03-15T13:42:05;99065.19;;;7.03;74.96
47430;BME280;33181;49.246;7.372;2023-03-15T13:44:41;99062.47;;;7.05;75.31
47430;BME280;33181;49.246;7.372;2023-03-15T13:47:06;99065.84;;;7.07;76.34
47430;BME280;33181;49.246;7.372;2023-03-15T13:49:33;99058.34;;;6.86;74.43
47430;BME280;33181;49.246;7.372;2023-03-15T13:52:02;99046.06;;;6.88;76.56
47430;BME280;33181;49.246;7.372;2023-03-15T13:54:37;99045.84;;;7.20;74.60
47430;BME280;33181;49.246;7.372;2023-03-15T13:57:11;99046.81;;;7.60;75.59
47430;BME280;33181;49.246;7.372;2023-03-15T14:00:00;99045.88;;;7.88;71.46
47430;BME280;33181;49.246;7.372;2023-03-15T14:05:12;99037.50;;;8.36;68.70
47430;BME280;33181;49.246;7.372;2023-03-15T14:07:45;99031.91;;;8.55;67.85
47430;BME280;33181;49.246;7.372;2023-03-15T14:12:42;99023.72;;;8.59;64.90
47430;BME280;33181;49.246;7.372;2023-03-15T14:15:18;99032.94;;;8.65;66.18
47430;BME280;33181;49.246;7.372;2023-03-15T14:18:02;99028.03;;;8.86;67.20
47430;BME280;33181;49.246;7.372;2023-03-15T14:20:37;99025.81;;;9.05;66.21
47430;BME280;33181;49.246;7.372;2023-03-15T14:23:07;99024.03;;;9.06;64.38
47430;BME280;33181;49.246;7.372;2023-03-15T14:25:35;99019.72;;;9.18;63.68
47430;BME280;33181;49.246;7.372;2023-03-15T14:28:04;99026.81;;;9.16;63.08
47430;BME280;33181;49.246;7.372;2023-03-15T14:30:36;99022.88;;;8.97;63.82
47430;BME280;33181;49.246;7.372;2023-03-15T14:33:20;99027.28;;;8.97;64.13
47430;BME280;33181;49.246;7.372;2023-03-15T14:35:46;99033.66;;;9.05;63.53
47430;BME280;33181;49.246;7.372;2023-03-15T14:38:21;99025.03;;;9.16;61.33